createdAt,value
2018-03-16T00:00:08.268Z,21.97
2018-03-16T00:00:40.330Z,21.97
2018-03-16T00:01:12.413Z,21.98
2018-03-16T00:01:44.467Z,21.97
2018-03-16T00:02:17.318Z,21.98
2018-03-16T00:02:49.387Z,21.98
2018-03-16T00:03:22.224Z,21.99
2018-03-16T00:03:54.271Z,21.98
2018-03-16T00:04:26.341Z,21.98
2018-03-16T00:04:58.400Z,21.97
2018-03-16T00:05:30.447Z,21.98
2018-03-16T00:06:02.495Z,21.98
2018-03-16T00:06:34.544Z,21.99
2018-03-16T00:07:06.620Z,21.97
2018-03-16T00:07:39.438Z,21.99
2018-03-16T00:08:11.503Z,21.98
2018-03-16T00:08:43.568Z,21.99
2018-03-16T00:09:15.647Z,21.98
2018-03-16T00:09:48.486Z,21.99
2018-03-16T00:10:20.527Z,21.98
2018-03-16T00:10:52.606Z,21.99
2018-03-16T00:11:24.646Z,21.99
2018-03-16T00:11:56.698Z,21.98
2018-03-16T00:12:28.788Z,21.98
2018-03-16T00:13:00.856Z,21.99
2018-03-16T00:13:32.979Z,21.99
2018-03-16T00:14:05.810Z,21.98
2018-03-16T00:14:37.877Z,21.99
2018-03-16T00:15:09.936Z,21.98
2018-03-16T00:15:41.990Z,21.98
2018-03-16T00:16:14.068Z,21.99
2018-03-16T00:16:46.895Z,21.99
2018-03-16T00:17:18.969Z,21.99
2018-03-16T00:17:51.003Z,21.99
2018-03-16T00:18:23.054Z,21.98
2018-03-16T00:18:55.115Z,21.98
2018-03-16T00:19:27.184Z,21.99
2018-03-16T00:20:00.012Z,21.99
2018-03-16T00:20:32.064Z,21.98
2018-03-16T00:21:04.138Z,21.98
2018-03-16T00:21:36.271Z,21.98
2018-03-16T00:22:08.320Z,21.99
2018-03-16T00:22:40.395Z,21.98
2018-03-16T00:23:12.513Z,21.98
2018-03-16T00:23:45.335Z,21.99
2018-03-16T00:24:17.387Z,21.94
2018-03-16T00:24:50.217Z,21.99
2018-03-16T00:25:22.303Z,21.98
2018-03-16T00:25:55.146Z,21.98
2018-03-16T00:26:27.220Z,21.99
2018-03-16T00:26:59.265Z,21.99
2018-03-16T00:27:31.334Z,21.99
2018-03-16T00:28:04.158Z,21.97
2018-03-16T00:28:36.202Z,21.98
2018-03-16T00:29:08.296Z,21.99
2018-03-16T00:29:40.379Z,21.98
2018-03-16T00:30:12.448Z,21.97
2018-03-16T00:30:44.519Z,21.98
2018-03-16T00:31:16.576Z,21.98
2018-03-16T00:31:48.642Z,21.97
2018-03-16T00:32:20.751Z,21.98
2018-03-16T00:32:52.824Z,21.98
2018-03-16T00:33:24.883Z,21.99
2018-03-16T00:33:56.965Z,21.99
2018-03-16T00:34:29.137Z,21.98
2018-03-16T00:35:01.960Z,21.99
2018-03-16T00:35:34.076Z,21.99
2018-03-16T00:36:06.112Z,21.99
2018-03-16T00:36:38.926Z,21.98
2018-03-16T00:37:11.002Z,21.98
2018-03-16T00:37:43.124Z,21.98
2018-03-16T00:38:15.191Z,21.99
2018-03-16T00:38:47.287Z,22.00
2018-03-16T00:39:20.192Z,21.99
2018-03-16T00:39:52.247Z,21.99
2018-03-16T00:40:24.329Z,21.98
2018-03-16T00:40:56.383Z,21.99
2018-03-16T00:41:28.439Z,21.98
2018-03-16T00:42:00.510Z,21.99
2018-03-16T00:42:33.361Z,21.99
2018-03-16T00:43:05.401Z,21.99
2018-03-16T00:43:37.460Z,21.99
2018-03-16T00:44:09.534Z,21.98
2018-03-16T00:44:42.351Z,22.00
2018-03-16T00:45:14.417Z,21.99
2018-03-16T00:45:46.487Z,21.99
2018-03-16T00:46:18.543Z,22.00
2018-03-16T00:46:50.595Z,21.99
2018-03-16T00:47:22.652Z,21.99
2018-03-16T00:47:54.706Z,22.00
2018-03-16T00:48:26.771Z,22.00
2018-03-16T00:48:59.593Z,22.00
2018-03-16T00:49:31.648Z,22.00
2018-03-16T00:50:03.740Z,22.00
2018-03-16T00:50:35.810Z,22.00
2018-03-16T00:51:07.883Z,21.99
2018-03-16T00:51:39.965Z,22.00
2018-03-16T00:52:12.043Z,21.98
2018-03-16T00:52:44.092Z,22.00
2018-03-16T00:53:16.155Z,21.99
2018-03-16T00:53:48.983Z,21.99
2018-03-16T00:54:21.042Z,21.99
2018-03-16T00:54:53.111Z,22.00
2018-03-16T00:55:25.153Z,21.99
2018-03-16T00:55:57.203Z,22.00
2018-03-16T00:56:29.269Z,21.99
2018-03-16T00:57:01.306Z,22.00
2018-03-16T00:57:33.359Z,22.00
2018-03-16T00:58:05.420Z,22.00
2018-03-16T00:58:37.479Z,21.99
2018-03-16T00:59:09.618Z,22.01
2018-03-16T00:59:41.679Z,22.01
2018-03-16T01:00:13.728Z,22.00
2018-03-16T01:00:45.771Z,22.00
2018-03-16T01:01:17.859Z,22.00
2018-03-16T01:01:50.671Z,22.01
2018-03-16T01:02:22.744Z,22.01
2018-03-16T01:02:54.835Z,21.99
2018-03-16T01:03:26.894Z,22.00
2018-03-16T01:03:58.995Z,22.00
2018-03-16T01:04:31.045Z,22.01
2018-03-16T01:05:03.134Z,22.00
2018-03-16T01:05:35.187Z,22.01
2018-03-16T01:06:07.271Z,22.00
2018-03-16T01:06:40.129Z,22.00
2018-03-16T01:07:12.192Z,21.99
2018-03-16T01:07:45.015Z,22.01
2018-03-16T01:08:17.067Z,21.99
2018-03-16T01:08:49.152Z,21.99
2018-03-16T01:09:21.241Z,21.99
2018-03-16T01:09:53.290Z,22.00
2018-03-16T01:10:25.338Z,22.01
2018-03-16T01:10:57.406Z,22.01
2018-03-16T01:11:29.478Z,22.01
2018-03-16T01:12:01.545Z,22.01
2018-03-16T01:12:33.587Z,22.01
2018-03-16T01:13:05.658Z,22.00
2018-03-16T01:13:37.727Z,22.00
2018-03-16T01:14:10.584Z,22.01
2018-03-16T01:14:42.703Z,22.01
2018-03-16T01:15:14.755Z,22.00
2018-03-16T01:15:46.812Z,22.01
2018-03-16T01:16:18.859Z,22.01
2018-03-16T01:16:50.974Z,22.01
2018-03-16T01:17:23.795Z,22.00
2018-03-16T01:17:55.928Z,22.02
2018-03-16T01:18:27.987Z,22.01
2018-03-16T01:19:00.039Z,22.00
2018-03-16T01:19:32.091Z,22.01
2018-03-16T01:20:04.175Z,22.01
2018-03-16T01:20:36.265Z,22.01
2018-03-16T01:21:09.053Z,22.01
2018-03-16T01:21:41.123Z,22.01
2018-03-16T01:22:13.197Z,22.00
2018-03-16T01:22:45.259Z,22.00
2018-03-16T01:23:17.364Z,22.00
2018-03-16T01:23:49.395Z,22.02
2018-03-16T01:24:21.497Z,22.01
2018-03-16T01:24:53.550Z,22.01
2018-03-16T01:25:25.603Z,22.02
2018-03-16T01:25:57.668Z,22.02
2018-03-16T01:26:29.722Z,22.02
2018-03-16T01:27:02.535Z,22.02
2018-03-16T01:27:34.602Z,22.01
2018-03-16T01:28:06.665Z,22.02
2018-03-16T01:28:38.711Z,22.02
2018-03-16T01:29:10.811Z,22.02
2018-03-16T01:29:43.696Z,22.02
2018-03-16T01:30:15.712Z,22.02
2018-03-16T01:30:47.839Z,22.02
2018-03-16T01:31:19.905Z,22.02
2018-03-16T01:31:51.959Z,22.02
2018-03-16T01:32:24.027Z,22.02
2018-03-16T01:32:56.075Z,22.03
2018-03-16T01:33:28.135Z,22.03
2018-03-16T01:34:00.957Z,22.03
2018-03-16T01:34:33.066Z,22.02
2018-03-16T01:35:05.874Z,22.02
2018-03-16T01:35:37.961Z,22.01
2018-03-16T01:36:10.016Z,22.02
2018-03-16T01:36:42.080Z,22.02
2018-03-16T01:37:14.906Z,22.01
2018-03-16T01:37:46.960Z,22.02
2018-03-16T01:38:19.023Z,22.01
2018-03-16T01:38:51.082Z,22.03
2018-03-16T01:39:23.230Z,22.03
2018-03-16T01:39:55.295Z,22.02
2018-03-16T01:40:27.336Z,22.03
2018-03-16T01:40:59.402Z,22.04
2018-03-16T01:41:31.451Z,22.04
2018-03-16T01:42:03.538Z,22.03
2018-03-16T01:42:36.391Z,22.04
2018-03-16T01:43:08.473Z,22.03
2018-03-16T01:43:40.576Z,22.03
2018-03-16T01:44:12.638Z,22.04
2018-03-16T01:44:44.713Z,22.03
2018-03-16T01:45:17.522Z,22.04
2018-03-16T01:45:49.582Z,22.03
2018-03-16T01:46:21.687Z,22.04
2018-03-16T01:46:54.494Z,22.04
2018-03-16T01:47:26.561Z,22.04
2018-03-16T01:47:58.603Z,22.05
2018-03-16T01:48:30.680Z,22.04
2018-03-16T01:49:02.767Z,22.03
2018-03-16T01:49:35.577Z,22.05
2018-03-16T01:50:07.626Z,22.05
2018-03-16T01:50:39.679Z,22.06
2018-03-16T01:51:11.760Z,22.05
2018-03-16T01:51:43.800Z,22.05
2018-03-16T01:52:15.867Z,22.05
2018-03-16T01:52:47.925Z,22.06
2018-03-16T01:53:20.071Z,22.05
2018-03-16T01:53:52.135Z,22.06
2018-03-16T01:54:24.178Z,22.06
2018-03-16T01:54:56.272Z,22.06
2018-03-16T01:55:28.338Z,22.05
2018-03-16T01:56:00.373Z,22.06
2018-03-16T01:56:32.447Z,22.07
2018-03-16T01:57:04.521Z,22.05
2018-03-16T01:57:36.579Z,22.06
2018-03-16T01:58:08.641Z,22.06
2018-03-16T01:58:40.691Z,22.05
2018-03-16T01:59:12.761Z,22.05
2018-03-16T01:59:44.811Z,22.05
2018-03-16T02:00:17.643Z,22.07
2018-03-16T02:00:49.760Z,22.05
2018-03-16T02:01:21.821Z,22.06
2018-03-16T02:01:53.879Z,22.06
2018-03-16T02:02:25.940Z,22.06
2018-03-16T02:02:57.993Z,22.06
2018-03-16T02:03:30.056Z,22.04
2018-03-16T02:04:02.119Z,22.06
2018-03-16T02:04:34.188Z,22.06
2018-03-16T02:05:07.016Z,22.06
2018-03-16T02:05:39.099Z,22.06
2018-03-16T02:06:11.152Z,22.06
2018-03-16T02:06:43.245Z,22.07
2018-03-16T02:07:16.230Z,22.07
2018-03-16T02:07:48.283Z,22.07
2018-03-16T02:08:20.379Z,22.07
2018-03-16T02:08:52.440Z,22.08
2018-03-16T02:09:24.520Z,22.07
2018-03-16T02:09:57.331Z,22.07
2018-03-16T02:10:29.374Z,22.08
2018-03-16T02:11:01.439Z,22.07
2018-03-16T02:11:33.520Z,22.06
2018-03-16T02:12:05.595Z,22.07
2018-03-16T02:12:37.650Z,22.07
2018-03-16T02:13:09.694Z,22.08
2018-03-16T02:13:41.761Z,22.08
2018-03-16T02:14:13.824Z,22.07
2018-03-16T02:14:45.872Z,22.06
2018-03-16T02:15:17.957Z,22.07
2018-03-16T02:15:49.990Z,22.07
2018-03-16T02:16:22.088Z,22.07
2018-03-16T02:16:54.138Z,22.08
2018-03-16T02:17:26.195Z,22.08
2018-03-16T02:17:58.282Z,22.08
2018-03-16T02:18:30.354Z,22.07
2018-03-16T02:19:02.397Z,22.08
2018-03-16T02:19:34.447Z,22.08
2018-03-16T02:20:06.491Z,22.08
2018-03-16T02:20:38.540Z,22.07
2018-03-16T02:21:10.595Z,22.09
2018-03-16T02:21:42.652Z,22.09
2018-03-16T02:22:14.697Z,22.09
2018-03-16T02:22:46.766Z,22.10
2018-03-16T02:23:18.819Z,22.09
2018-03-16T02:23:50.888Z,22.09
2018-03-16T02:24:22.986Z,22.09
2018-03-16T02:24:55.048Z,22.09
2018-03-16T02:25:27.107Z,22.09
2018-03-16T02:25:59.157Z,22.09
2018-03-16T02:26:31.211Z,22.10
2018-03-16T02:27:03.279Z,22.10
2018-03-16T02:27:35.338Z,22.10
2018-03-16T02:28:07.395Z,22.11
2018-03-16T02:28:39.455Z,22.10
2018-03-16T02:29:11.502Z,22.10
2018-03-16T02:29:43.566Z,22.10
2018-03-16T02:30:15.632Z,22.10
2018-03-16T02:30:47.728Z,22.10
2018-03-16T02:31:19.775Z,22.11
2018-03-16T02:31:51.820Z,22.11
2018-03-16T02:32:23.888Z,22.10
2018-03-16T02:32:55.952Z,22.10
2018-03-16T02:33:28.014Z,22.10
2018-03-16T02:34:00.097Z,22.11
2018-03-16T02:34:32.139Z,22.11
2018-03-16T02:35:04.196Z,22.11
2018-03-16T02:35:36.246Z,22.11
2018-03-16T02:36:08.352Z,22.11
2018-03-16T02:36:40.410Z,22.11
2018-03-16T02:37:12.451Z,22.10
2018-03-16T02:37:44.527Z,22.11
2018-03-16T02:38:16.594Z,22.11
2018-03-16T02:38:48.651Z,22.11
2018-03-16T02:39:20.710Z,22.11
2018-03-16T02:39:52.863Z,22.11
2018-03-16T02:40:24.927Z,22.11
2018-03-16T02:40:56.979Z,22.12
2018-03-16T02:41:29.806Z,22.11
2018-03-16T02:42:01.869Z,22.11
2018-03-16T02:42:33.918Z,22.12
2018-03-16T02:43:05.988Z,22.11
2018-03-16T02:43:38.070Z,22.11
2018-03-16T02:44:10.879Z,22.12
2018-03-16T02:44:42.940Z,22.12
2018-03-16T02:45:15.005Z,22.12
2018-03-16T02:45:47.053Z,22.11
2018-03-16T02:46:19.120Z,22.12
2018-03-16T02:46:51.172Z,22.12
2018-03-16T02:47:23.284Z,22.12
2018-03-16T02:47:55.338Z,22.12
2018-03-16T02:48:27.399Z,22.12
2018-03-16T02:48:59.464Z,22.12
2018-03-16T02:49:31.514Z,22.11
2018-03-16T02:50:03.607Z,22.12
2018-03-16T02:50:36.423Z,22.12
2018-03-16T02:51:08.489Z,22.12
2018-03-16T02:51:40.540Z,22.12
2018-03-16T02:52:12.661Z,22.12
2018-03-16T02:52:45.443Z,22.11
2018-03-16T02:53:17.505Z,22.12
2018-03-16T02:53:49.565Z,22.12
2018-03-16T02:54:21.619Z,22.12
2018-03-16T02:54:53.663Z,22.13
2018-03-16T02:55:25.727Z,22.13
2018-03-16T02:55:57.780Z,22.13
2018-03-16T02:56:29.827Z,22.13
2018-03-16T02:57:01.900Z,22.12
2018-03-16T02:57:33.950Z,22.13
2018-03-16T02:58:06.803Z,22.12
2018-03-16T02:58:38.851Z,22.13
2018-03-16T02:59:10.911Z,22.14
2018-03-16T02:59:43.006Z,22.12
2018-03-16T03:00:15.067Z,22.13
2018-03-16T03:00:47.124Z,22.13
2018-03-16T03:01:19.178Z,22.12
2018-03-16T03:01:51.239Z,22.12
2018-03-16T03:02:23.309Z,22.13
2018-03-16T03:02:55.354Z,22.12
2018-03-16T03:03:27.426Z,22.13
2018-03-16T03:03:59.483Z,22.13
2018-03-16T03:04:31.527Z,22.14
2018-03-16T03:05:03.589Z,22.12
2018-03-16T03:05:35.643Z,22.13
2018-03-16T03:06:07.690Z,22.13
2018-03-16T03:06:39.741Z,22.12
2018-03-16T03:07:11.832Z,22.14
2018-03-16T03:07:43.893Z,22.13
2018-03-16T03:08:15.950Z,22.13
2018-03-16T03:08:48.010Z,22.14
2018-03-16T03:09:20.073Z,22.13
2018-03-16T03:09:52.181Z,22.14
2018-03-16T03:10:25.127Z,22.12
2018-03-16T03:10:57.280Z,22.14
2018-03-16T03:11:29.327Z,22.13
2018-03-16T03:12:01.382Z,22.14
2018-03-16T03:12:33.439Z,22.13
2018-03-16T03:13:05.527Z,22.13
2018-03-16T03:13:37.578Z,22.13
2018-03-16T03:14:09.629Z,22.14
2018-03-16T03:14:41.694Z,22.14
2018-03-16T03:15:13.782Z,22.13
2018-03-16T03:15:45.811Z,22.13
2018-03-16T03:16:17.866Z,22.13
2018-03-16T03:16:50.019Z,22.13
2018-03-16T03:17:22.106Z,22.14
2018-03-16T03:17:54.138Z,22.13
2018-03-16T03:18:26.211Z,22.14
2018-03-16T03:18:58.248Z,22.14
2018-03-16T03:19:30.309Z,22.14
2018-03-16T03:20:02.377Z,22.13
2018-03-16T03:20:34.436Z,22.15
2018-03-16T03:21:07.260Z,22.14
2018-03-16T03:21:39.336Z,22.15
2018-03-16T03:22:11.414Z,22.14
2018-03-16T03:22:43.476Z,22.14
2018-03-16T03:23:15.539Z,22.14
2018-03-16T03:23:47.595Z,22.15
2018-03-16T03:24:19.684Z,22.15
2018-03-16T03:24:51.749Z,22.14
2018-03-16T03:25:23.803Z,22.14
2018-03-16T03:25:55.843Z,22.16
2018-03-16T03:26:27.908Z,22.14
2018-03-16T03:26:59.959Z,22.13
2018-03-16T03:27:32.025Z,22.15
2018-03-16T03:28:04.899Z,22.13
2018-03-16T03:28:37.713Z,22.15
2018-03-16T03:29:09.803Z,22.15
2018-03-16T03:29:41.906Z,22.14
2018-03-16T03:30:13.964Z,22.15
2018-03-16T03:30:46.101Z,22.15
2018-03-16T03:31:18.915Z,22.15
2018-03-16T03:31:50.975Z,22.15
2018-03-16T03:32:23.022Z,22.14
2018-03-16T03:32:55.079Z,22.14
2018-03-16T03:33:27.182Z,22.15
2018-03-16T03:33:59.243Z,22.14
2018-03-16T03:34:31.304Z,22.14
2018-03-16T03:35:03.350Z,22.14
2018-03-16T03:35:35.418Z,22.14
2018-03-16T03:36:07.486Z,22.15
2018-03-16T03:36:39.555Z,22.15
2018-03-16T03:37:11.647Z,22.14
2018-03-16T03:37:43.746Z,22.16
2018-03-16T03:38:15.900Z,22.15
2018-03-16T03:38:48.130Z,22.15
2018-03-16T03:39:20.229Z,22.17
2018-03-16T03:39:52.529Z,22.14
2018-03-16T03:40:24.706Z,22.14
2018-03-16T03:40:56.901Z,22.14
2018-03-16T03:41:28.990Z,22.15
2018-03-16T03:42:01.046Z,22.14
2018-03-16T03:42:33.151Z,22.15
2018-03-16T03:43:05.990Z,22.14
2018-03-16T03:43:38.080Z,22.15
2018-03-16T03:44:10.128Z,22.15
2018-03-16T03:44:42.964Z,22.15
2018-03-16T03:45:15.033Z,22.15
2018-03-16T03:45:47.066Z,22.14
2018-03-16T03:46:19.131Z,22.16
2018-03-16T03:46:51.186Z,22.15
2018-03-16T03:47:23.238Z,22.15
2018-03-16T03:47:55.304Z,22.15
2018-03-16T03:48:28.126Z,22.15
2018-03-16T03:49:00.180Z,22.14
2018-03-16T03:49:32.248Z,22.14
2018-03-16T03:50:04.310Z,22.13
2018-03-16T03:50:36.383Z,22.14
2018-03-16T03:51:09.206Z,22.14
2018-03-16T03:51:41.286Z,22.15
2018-03-16T03:52:14.134Z,22.13
2018-03-16T03:52:46.219Z,22.14
2018-03-16T03:53:18.254Z,22.15
2018-03-16T03:53:50.303Z,22.15
2018-03-16T03:54:22.395Z,22.15
2018-03-16T03:54:55.202Z,22.14
2018-03-16T03:55:27.279Z,22.14
2018-03-16T03:55:59.328Z,22.15
2018-03-16T03:56:31.387Z,22.15
2018-03-16T03:57:03.455Z,22.15
2018-03-16T03:57:36.278Z,22.15
2018-03-16T03:58:08.335Z,22.15
2018-03-16T03:58:40.428Z,22.17
2018-03-16T03:59:12.483Z,22.16
2018-03-16T03:59:44.538Z,22.18
2018-03-16T04:00:16.642Z,22.15
2018-03-16T04:00:48.695Z,22.15
2018-03-16T04:01:20.762Z,22.17
2018-03-16T04:01:52.819Z,22.17
2018-03-16T04:02:24.917Z,22.15
2018-03-16T04:02:57.718Z,22.15
2018-03-16T04:03:29.787Z,22.15
2018-03-16T04:04:01.842Z,22.15
2018-03-16T04:04:33.907Z,22.15
2018-03-16T04:05:05.967Z,22.15
2018-03-16T04:05:38.029Z,22.15
2018-03-16T04:06:10.827Z,22.15
2018-03-16T04:06:42.880Z,22.15
2018-03-16T04:07:14.950Z,22.15
2018-03-16T04:07:47.036Z,22.15
2018-03-16T04:08:19.078Z,22.15
2018-03-16T04:08:51.187Z,22.15
2018-03-16T04:09:23.240Z,22.15
2018-03-16T04:09:55.281Z,22.15
2018-03-16T04:10:27.351Z,22.15
2018-03-16T04:10:59.410Z,22.14
2018-03-16T04:11:31.457Z,22.15
2018-03-16T04:12:03.514Z,22.14
2018-03-16T04:12:35.574Z,22.15
2018-03-16T04:13:07.619Z,22.15
2018-03-16T04:13:39.707Z,22.15
2018-03-16T04:14:11.782Z,22.16
2018-03-16T04:14:44.588Z,22.15
2018-03-16T04:15:16.646Z,22.16
2018-03-16T04:15:48.703Z,22.15
2018-03-16T04:16:20.758Z,22.15
2018-03-16T04:16:52.811Z,22.18
2018-03-16T04:17:24.917Z,22.16
2018-03-16T04:17:57.782Z,22.18
2018-03-16T04:18:29.961Z,22.16
2018-03-16T04:19:02.019Z,22.16
2018-03-16T04:19:34.086Z,22.16
2018-03-16T04:20:06.155Z,22.16
2018-03-16T04:20:38.228Z,22.15
2018-03-16T04:21:10.313Z,22.16
2018-03-16T04:21:43.197Z,22.15
2018-03-16T04:22:15.261Z,22.17
2018-03-16T04:22:47.318Z,22.15
2018-03-16T04:23:19.392Z,22.16
2018-03-16T04:23:51.489Z,22.17
2018-03-16T04:24:23.613Z,22.17
2018-03-16T04:24:55.683Z,22.16
2018-03-16T04:25:28.522Z,22.18
2018-03-16T04:26:00.576Z,22.16
2018-03-16T04:26:32.660Z,22.15
2018-03-16T04:27:05.471Z,22.17
2018-03-16T04:27:37.527Z,22.16
2018-03-16T04:28:09.619Z,22.17
2018-03-16T04:28:41.679Z,22.16
2018-03-16T04:29:14.528Z,22.17
2018-03-16T04:29:46.571Z,22.18
2018-03-16T04:30:18.738Z,22.18
2018-03-16T04:30:50.767Z,22.16
2018-03-16T04:31:22.833Z,22.19
2018-03-16T04:31:54.927Z,22.17
2018-03-16T04:32:27.823Z,22.17
2018-03-16T04:32:59.949Z,22.16
2018-03-16T04:33:32.032Z,22.16
2018-03-16T04:34:04.101Z,22.18
2018-03-16T04:34:36.208Z,22.16
2018-03-16T04:35:09.045Z,22.17
2018-03-16T04:35:41.159Z,22.18
2018-03-16T04:36:14.073Z,22.17
2018-03-16T04:36:46.299Z,22.18
2018-03-16T04:37:18.415Z,22.18
2018-03-16T04:37:50.498Z,22.18
2018-03-16T04:38:22.573Z,22.19
2018-03-16T04:38:54.623Z,22.18
2018-03-16T04:39:26.754Z,22.17
2018-03-16T04:39:58.850Z,22.17
2018-03-16T04:40:31.092Z,22.20
2018-03-16T04:41:03.153Z,22.18
2018-03-16T04:41:36.110Z,22.19
2018-03-16T04:42:08.160Z,22.19
2018-03-16T04:42:40.293Z,22.17
2018-03-16T04:43:12.399Z,22.17
2018-03-16T04:43:45.225Z,22.19
2018-03-16T04:44:17.298Z,22.20
2018-03-16T04:44:49.396Z,22.18
2018-03-16T04:45:21.436Z,22.19
2018-03-16T04:45:53.528Z,22.19
2018-03-16T04:46:25.647Z,22.19
2018-03-16T04:46:57.746Z,22.19
2018-03-16T04:47:29.805Z,22.19
2018-03-16T04:48:01.884Z,22.19
2018-03-16T04:48:34.878Z,22.19
2018-03-16T04:49:06.943Z,22.19
2018-03-16T04:49:39.028Z,22.19
2018-03-16T04:50:11.161Z,22.20
2018-03-16T04:50:43.276Z,22.19
2018-03-16T04:51:16.175Z,22.20
2018-03-16T04:51:48.302Z,22.20
2018-03-16T04:52:21.160Z,22.20
2018-03-16T04:52:54.069Z,22.20
2018-03-16T04:53:26.162Z,22.20
2018-03-16T04:53:58.274Z,22.20
2018-03-16T04:54:30.353Z,22.19
2018-03-16T04:55:02.467Z,22.20
2018-03-16T04:55:35.351Z,22.19
2018-03-16T04:56:07.482Z,22.20
2018-03-16T04:56:40.327Z,22.19
2018-03-16T04:57:12.476Z,22.20
2018-03-16T04:57:44.579Z,22.20
2018-03-16T04:58:16.662Z,22.19
2018-03-16T04:58:48.739Z,22.19
2018-03-16T04:59:20.853Z,22.21
2018-03-16T04:59:52.978Z,22.20
2018-03-16T05:00:25.832Z,22.20
2018-03-16T05:00:58.682Z,22.21
2018-03-16T05:01:30.749Z,22.20
2018-03-16T05:02:03.588Z,22.21
2018-03-16T05:02:35.639Z,22.21
2018-03-16T05:03:07.753Z,22.21
2018-03-16T05:03:39.826Z,22.20
2018-03-16T05:04:11.879Z,22.19
2018-03-16T05:04:43.949Z,22.21
2018-03-16T05:05:16.000Z,22.21
2018-03-16T05:05:48.078Z,22.21
2018-03-16T05:06:20.908Z,22.20
2018-03-16T05:06:52.971Z,22.20
2018-03-16T05:07:25.048Z,22.20
2018-03-16T05:07:57.108Z,22.20
2018-03-16T05:08:29.970Z,22.20
2018-03-16T05:09:02.071Z,22.20
2018-03-16T05:09:34.195Z,22.20
2018-03-16T05:10:06.307Z,22.20
2018-03-16T05:10:38.418Z,22.21
2018-03-16T05:11:10.496Z,22.20
2018-03-16T05:11:42.586Z,22.19
2018-03-16T05:12:14.621Z,22.21
2018-03-16T05:12:46.724Z,22.20
2018-03-16T05:13:18.842Z,22.21
2018-03-16T05:13:50.921Z,22.21
2018-03-16T05:14:23.780Z,22.21
2018-03-16T05:14:56.654Z,22.20
2018-03-16T05:15:28.784Z,22.20
2018-03-16T05:16:00.879Z,22.21
2018-03-16T05:16:33.019Z,22.20
2018-03-16T05:17:05.827Z,22.20
2018-03-16T05:17:37.931Z,22.21
2018-03-16T05:18:10.840Z,22.22
2018-03-16T05:18:42.955Z,22.19
2018-03-16T05:19:15.768Z,22.21
2018-03-16T05:19:47.857Z,22.20
2018-03-16T05:20:19.897Z,22.21
2018-03-16T05:20:51.966Z,22.21
2018-03-16T05:21:24.123Z,22.21
2018-03-16T05:21:56.203Z,22.21
2018-03-16T05:22:28.310Z,22.20
2018-03-16T05:23:00.351Z,22.21
2018-03-16T05:23:32.437Z,22.22
2018-03-16T05:24:05.258Z,22.21
2018-03-16T05:24:37.320Z,22.20
2018-03-16T05:25:09.507Z,22.20
2018-03-16T05:25:42.338Z,22.20
2018-03-16T05:26:14.386Z,22.22
2018-03-16T05:26:46.445Z,22.21
2018-03-16T05:27:18.504Z,22.21
2018-03-16T05:27:50.566Z,22.21
2018-03-16T05:28:22.608Z,21.85
2018-03-16T05:28:54.664Z,21.08
2018-03-16T05:29:26.717Z,20.53
2018-03-16T05:29:58.806Z,20.11
2018-03-16T05:30:31.618Z,19.78
2018-03-16T05:31:03.698Z,19.55
2018-03-16T05:31:35.754Z,19.45
2018-03-16T05:32:07.807Z,19.39
2018-03-16T05:32:39.928Z,19.35
2018-03-16T05:33:12.071Z,19.26
2018-03-16T05:33:44.115Z,19.14
2018-03-16T05:34:16.188Z,19.09
2018-03-16T05:34:48.243Z,19.10
2018-03-16T05:35:20.328Z,19.09
2018-03-16T05:35:52.471Z,19.07
2018-03-16T05:36:24.522Z,19.05
2018-03-16T05:36:56.578Z,19.08
2018-03-16T05:37:28.623Z,19.16
2018-03-16T05:38:00.722Z,19.21
2018-03-16T05:38:32.771Z,19.27
2018-03-16T05:39:04.913Z,19.40
2018-03-16T05:39:37.727Z,19.33
2018-03-16T05:40:09.968Z,19.32
2018-03-16T05:40:42.029Z,19.29
2018-03-16T05:41:14.088Z,19.25
2018-03-16T05:41:46.136Z,19.28
2018-03-16T05:42:18.193Z,19.31
2018-03-16T05:42:50.239Z,19.31
2018-03-16T05:43:22.296Z,19.32
2018-03-16T05:43:54.357Z,19.47
2018-03-16T05:44:26.451Z,19.52
2018-03-16T05:44:59.296Z,19.52
2018-03-16T05:45:31.335Z,19.44
2018-03-16T05:46:03.391Z,19.42
2018-03-16T05:46:35.455Z,19.42
2018-03-16T05:47:07.531Z,19.35
2018-03-16T05:47:39.586Z,19.41
2018-03-16T05:48:11.651Z,19.40
2018-03-16T05:48:43.706Z,19.35
2018-03-16T05:49:15.776Z,19.39
2018-03-16T05:49:47.871Z,19.37
2018-03-16T05:50:19.939Z,19.36
2018-03-16T05:50:52.766Z,19.35
2018-03-16T05:51:24.880Z,19.35
2018-03-16T05:51:57.703Z,19.27
2018-03-16T05:52:30.580Z,19.26
2018-03-16T05:53:02.654Z,19.28
2018-03-16T05:53:35.475Z,19.27
2018-03-16T05:54:07.542Z,19.29
2018-03-16T05:54:39.594Z,19.27
2018-03-16T05:55:11.778Z,19.40
2018-03-16T05:55:44.604Z,19.68
2018-03-16T05:56:16.675Z,19.60
2018-03-16T05:56:48.723Z,19.53
2018-03-16T05:57:20.801Z,19.50
2018-03-16T05:57:53.628Z,19.45
2018-03-16T05:58:25.697Z,19.37
2018-03-16T05:58:57.804Z,19.27
2018-03-16T05:59:29.802Z,19.28
2018-03-16T06:00:01.875Z,19.28
2018-03-16T06:00:34.724Z,19.25
2018-03-16T06:01:06.778Z,19.25
2018-03-16T06:01:38.901Z,19.29
2018-03-16T06:02:10.998Z,19.29
2018-03-16T06:02:43.936Z,19.28
2018-03-16T06:03:16.003Z,19.30
2018-03-16T06:03:48.079Z,19.25
2018-03-16T06:04:20.932Z,19.31
2018-03-16T06:04:52.987Z,19.29
2018-03-16T06:05:25.063Z,19.26
2018-03-16T06:05:57.908Z,19.25
2018-03-16T06:06:29.965Z,19.25
2018-03-16T06:07:02.021Z,19.23
2018-03-16T06:07:34.076Z,19.27
2018-03-16T06:08:06.159Z,19.25
2018-03-16T06:08:38.226Z,19.26
2018-03-16T06:09:10.289Z,19.25
2018-03-16T06:09:42.362Z,19.27
2018-03-16T06:10:14.475Z,19.28
2018-03-16T06:10:46.550Z,19.26
2018-03-16T06:11:18.626Z,19.24
2018-03-16T06:11:50.770Z,19.28
2018-03-16T06:12:22.856Z,19.25
2018-03-16T06:12:56.472Z,19.21
2018-03-16T06:13:28.529Z,19.21
2018-03-16T06:14:00.588Z,19.22
2018-03-16T06:14:32.654Z,19.21
2018-03-16T06:15:04.751Z,19.19
2018-03-16T06:15:36.782Z,19.17
2018-03-16T06:16:08.836Z,19.19
2018-03-16T06:16:40.894Z,19.23
2018-03-16T06:17:12.963Z,19.21
2018-03-16T06:17:45.777Z,19.20
2018-03-16T06:18:17.852Z,19.18
2018-03-16T06:18:49.899Z,19.17
2018-03-16T06:19:21.968Z,19.15
2018-03-16T06:19:54.033Z,19.14
2018-03-16T06:20:26.856Z,19.17
2018-03-16T06:20:58.915Z,19.12
2018-03-16T06:21:30.948Z,19.17
2018-03-16T06:22:03.011Z,19.19
2018-03-16T06:22:35.077Z,19.18
2018-03-16T06:23:07.128Z,19.20
2018-03-16T06:23:39.167Z,19.17
2018-03-16T06:24:11.227Z,19.15
2018-03-16T06:24:43.278Z,19.11
2018-03-16T06:25:15.338Z,19.14
2018-03-16T06:25:47.384Z,19.19
2018-03-16T06:26:19.440Z,19.18
2018-03-16T06:26:51.536Z,19.23
2018-03-16T06:27:23.554Z,19.24
2018-03-16T06:27:55.610Z,19.26
2018-03-16T06:28:27.680Z,19.23
2018-03-16T06:28:59.770Z,19.17
2018-03-16T06:29:31.849Z,19.16
2018-03-16T06:30:03.912Z,19.12
2018-03-16T06:30:35.967Z,19.11
2018-03-16T06:31:08.043Z,19.12
2018-03-16T06:31:40.887Z,19.20
2018-03-16T06:32:12.957Z,19.24
2018-03-16T06:32:45.780Z,19.21
2018-03-16T06:33:17.885Z,19.17
2018-03-16T06:33:50.767Z,19.19
2018-03-16T06:34:22.775Z,19.15
2018-03-16T06:34:54.821Z,19.11
2018-03-16T06:35:26.908Z,19.11
2018-03-16T06:35:59.743Z,19.12
2018-03-16T06:36:31.840Z,19.11
2018-03-16T06:37:04.679Z,19.17
2018-03-16T06:37:36.771Z,19.18
2018-03-16T06:38:09.589Z,19.20
2018-03-16T06:38:41.647Z,19.23
2018-03-16T06:39:13.708Z,19.23
2018-03-16T06:39:45.759Z,19.19
2018-03-16T06:40:17.814Z,19.13
2018-03-16T06:40:49.872Z,19.18
2018-03-16T06:41:22.693Z,19.23
2018-03-16T06:41:54.751Z,19.18
2018-03-16T06:42:26.813Z,19.20
2018-03-16T06:42:58.880Z,19.23
2018-03-16T06:43:30.942Z,19.21
2018-03-16T06:44:03.779Z,19.19
2018-03-16T06:44:35.893Z,19.22
2018-03-16T06:45:07.915Z,19.21
2018-03-16T06:45:39.974Z,19.19
2018-03-16T06:46:12.027Z,19.21
2018-03-16T06:46:44.843Z,19.21
2018-03-16T06:47:16.906Z,19.22
2018-03-16T06:47:48.961Z,19.26
2018-03-16T06:48:21.012Z,19.26
2018-03-16T06:48:53.083Z,19.24
2018-03-16T06:49:25.158Z,19.26
2018-03-16T06:49:57.188Z,19.24
2018-03-16T06:50:29.263Z,19.20
2018-03-16T06:51:02.089Z,19.19
2018-03-16T06:51:34.167Z,19.23
2018-03-16T06:52:06.230Z,19.23
2018-03-16T06:52:38.295Z,19.20
2018-03-16T06:53:11.119Z,19.19
2018-03-16T06:53:43.200Z,19.18
2018-03-16T06:54:15.260Z,19.23